Time;durP1;ratioP1;P1;durP2;ratioP2;P2;SDS_P1;SDS_P2;PMS_P1;PMS_P2;Temp;Humidity;BMP_temperature;BMP_pressure;BME280_temperature;BME280_humidity;BME280_pressure;Samples;Min_cycle;Max_cycle;Signal;HPM_P1;HPM_P2
2022/01/25 00:24:20;;;;;;;42.20;23.10;;;;;;;;;;5079373;28;20459;-66
2022/01/25 00:27:01;;;;;;;41.97;24.40;;;;;;;;;;5078835;28;20490;-67
2022/01/25 00:29:36;;;;;;;42.57;26.17;;;;;;;;;;5079208;28;20458;-67
2022/01/25 00:32:04;;;;;;;44.03;23.63;;;;;;;;;;5079009;28;20481;-67
2022/01/25 00:34:34;;;;;;;44.07;23.77;;;;;;;;;;5076734;28;20781;-67
2022/01/25 00:37:04;;;;;;;41.60;23.47;;;;;;;;;;5078114;28;20460;-67
2022/01/25 00:39:32;;;;;;;45.17;23.00;;;;;;;;;;5078058;28;20997;-67
2022/01/25 00:42:00;;;;;;;43.10;25.20;;;;;;;;;;5077166;28;20447;-67
2022/01/25 00:44:35;;;;;;;45.97;24.43;;;;;;;;;;5077719;28;20948;-67
2022/01/25 00:47:05;;;;;;;46.67;25.63;;;;;;;;;;5077117;28;20465;-67
2022/01/25 00:49:37;;;;;;;44.80;23.13;;;;;;;;;;5076877;28;20523;-67
2022/01/25 00:52:18;;;;;;;43.83;24.53;;;;;;;;;;5074520;28;20480;-67
2022/01/25 00:54:46;;;;;;;45.37;25.27;;;;;;;;;;5076288;28;20439;-67
2022/01/25 00:57:15;;;;;;;46.40;25.80;;;;;;;;;;5077274;28;21482;-67
2022/01/25 00:59:43;;;;;;;40.40;22.50;;;;;;;;;;5076323;28;20433;-67
2022/01/25 01:02:14;;;;;;;43.53;23.20;;;;;;;;;;5079219;28;20450;-67
2022/01/25 01:04:44;;;;;;;46.77;23.83;;;;;;;;;;5076385;28;20778;-67
2022/01/25 01:07:14;;;;;;;46.07;22.27;;;;;;;;;;5078641;28;20472;-67
2022/01/25 01:09:45;;;;;;;42.23;21.97;;;;;;;;;;5074676;28;20428;-67
2022/01/25 01:12:18;;;;;;;42.90;23.10;;;;;;;;;;5077300;28;20499;-67
2022/01/25 01:15:05;;;;;;;38.70;20.07;;;;;;;;;;5077850;28;20432;-67
2022/01/25 01:28:49;;;;;;;38.80;22.33;;;;;;;;;;5069591;28;20984;-67
2022/01/25 01:29:07;;;;;;;43.20;22.50;;;;;;;;;;5077901;28;20459;-67
2022/01/25 01:31:51;;;;;;;37.13;20.63;;;;;;;;;;5077627;28;20987;-67
2022/01/25 01:43:03;;;;;;;44.03;23.53;;;;;;;;;;5120799;27;20938;-66
2022/01/25 01:45:47;;;;;;;37.47;22.03;;;;;;;;;;5113518;28;20434;-66
2022/01/25 01:48:27;;;;;;;41.53;22.47;;;;;;;;;;5113513;28;20475;-67
2022/01/25 01:50:57;;;;;;;44.43;22.83;;;;;;;;;;5113386;28;20493;-66
2022/01/25 01:53:27;;;;;;;37.13;21.83;;;;;;;;;;5131521;28;20460;-66
2022/01/25 01:55:55;;;;;;;38.07;21.83;;;;;;;;;;5135490;27;20960;-66
2022/01/25 01:58:23;;;;;;;42.73;22.93;;;;;;;;;;5117177;27;20446;-66
2022/01/25 02:00:51;;;;;;;38.23;22.37;;;;;;;;;;5115283;28;20443;-66
2022/01/25 02:03:19;;;;;;;45.77;22.10;;;;;;;;;;5114555;28;20779;-66
2022/01/25 02:05:48;;;;;;;39.37;22.40;;;;;;;;;;5127926;28;20446;-66
2022/01/25 02:08:16;;;;;;;50.17;23.63;;;;;;;;;;5134959;27;20921;-66
2022/01/25 02:10:45;;;;;;;39.97;21.37;;;;;;;;;;5120845;27;20810;-66
2022/01/25 02:13:13;;;;;;;37.33;21.63;;;;;;;;;;5114852;28;20449;-66
2022/01/25 02:15:45;;;;;;;37.77;21.67;;;;;;;;;;5114610;28;20470;-66
2022/01/25 02:23:46;;;;;;;37.63;22.10;;;;;;;;;;5114582;28;20454;-66
2022/01/25 02:26:14;;;;;;;39.13;21.40;;;;;;;;;;5114590;28;20467;-66
2022/01/25 02:28:43;;;;;;;42.37;22.20;;;;;;;;;;5114736;28;20439;-66
2022/01/25 02:31:12;;;;;;;44.13;22.87;;;;;;;;;;5114644;28;20451;-66
2022/01/25 02:33:41;;;;;;;36.73;20.67;;;;;;;;;;5114157;28;20848;-67
2022/01/25 02:36:11;;;;;;;42.10;21.53;;;;;;;;;;5113704;28;20487;-66
2022/01/25 02:38:39;;;;;;;39.43;23.10;;;;;;;;;;5120272;28;20434;-66
2022/01/25 02:41:07;;;;;;;42.80;21.70;;;;;;;;;;5115990;27;20451;-66
2022/01/25 02:43:35;;;;;;;40.83;23.00;;;;;;;;;;5114536;28;20447;-66
2022/01/25 02:48:29;;;;;;;43.03;22.90;;;;;;;;;;5113903;28;20588;-66
2022/01/25 02:49:08;;;;;;;42.37;22.03;;;;;;;;;;5100688;28;20443;-66
2022/01/25 02:51:38;;;;;;;42.97;22.93;;;;;;;;;;5100726;28;20523;-66
2022/01/25 02:54:08;;;;;;;47.43;24.17;;;;;;;;;;5099717;28;20444;-66
2022/01/25 02:56:36;;;;;;;51.70;25.37;;;;;;;;;;5112456;28;20479;-66
2022/01/25 02:59:05;;;;;;;44.07;23.87;;;;;;;;;;5100456;28;20446;-66
2022/01/25 03:01:33;;;;;;;49.97;26.40;;;;;;;;;;5120625;28;20530;-66
2022/01/25 03:04:02;;;;;;;47.13;25.90;;;;;;;;;;5120732;28;20498;-66
2022/01/25 03:06:30;;;;;;;42.73;25.07;;;;;;;;;;5118604;28;20550;-66
2022/01/25 03:08:59;;;;;;;48.93;25.77;;;;;;;;;;5120170;28;20453;-66
2022/01/25 03:11:27;;;;;;;39.17;24.17;;;;;;;;;;5103700;28;20810;-66
2022/01/25 03:13:58;;;;;;;52.70;26.03;;;;;;;;;;5100543;28;20447;-66
2022/01/25 03:16:31;;;;;;;44.60;26.13;;;;;;;;;;5100021;28;20480;-66
2022/01/25 03:19:01;;;;;;;47.90;24.37;;;;;;;;;;5099986;28;20526;-66
2022/01/25 03:21:38;;;;;;;43.60;24.43;;;;;;;;;;5100159;28;20452;-66
2022/01/25 03:24:08;;;;;;;40.93;23.07;;;;;;;;;;5099690;28;20439;-66
2022/01/25 03:26:36;;;;;;;42.97;25.07;;;;;;;;;;5117613;28;20559;-66
2022/01/25 03:29:05;;;;;;;48.20;24.80;;;;;;;;;;5120366;28;20810;-66
2022/01/25 03:31:33;;;;;;;44.97;23.57;;;;;;;;;;5119452;28;20450;-66
2022/01/25 03:34:01;;;;;;;42.67;23.20;;;;;;;;;;5120203;27;20506;-66
2022/01/25 03:36:29;;;;;;;40.50;22.60;;;;;;;;;;5114675;27;20497;-66
2022/01/25 03:38:57;;;;;;;42.00;23.77;;;;;;;;;;5115429;28;20946;-66
2022/01/25 03:41:27;;;;;;;45.67;26.10;;;;;;;;;;5110968;28;20528;-66
2022/01/25 03:43:56;;;;;;;44.50;23.73;;;;;;;;;;5120137;28;20441;-66
2022/01/25 03:46:32;;;;;;;38.73;22.90;;;;;;;;;;5116794;28;20481;-68
2022/01/25 03:51:45;;;;;;;44.40;23.47;;;;;;;;;;5114528;28;20536;-66
2022/01/25 03:54:13;;;;;;;41.43;22.37;;;;;;;;;;5119717;28;20447;-66
2022/01/25 03:56:43;;;;;;;45.63;25.93;;;;;;;;;;5109746;28;20543;-66
2022/01/25 03:59:11;;;;;;;46.10;23.33;;;;;;;;;;5104573;28;20438;-66
2022/01/25 04:01:39;;;;;;;47.67;24.50;;;;;;;;;;5100552;28;20454;-66
2022/01/25 04:04:10;;;;;;;43.70;22.27;;;;;;;;;;5099291;28;20443;-66
2022/01/25 04:06:38;;;;;;;40.63;22.17;;;;;;;;;;5099346;28;20471;-66
2022/01/25 04:09:08;;;;;;;45.17;23.60;;;;;;;;;;5098895;28;20534;-66
2022/01/25 04:11:36;;;;;;;55.47;24.20;;;;;;;;;;5099204;28;20458;-66
2022/01/25 04:14:05;;;;;;;48.33;24.20;;;;;;;;;;5099143;28;20443;-66
2022/01/25 04:16:37;;;;;;;45.53;23.43;;;;;;;;;;5099058;28;20479;-66
2022/01/25 04:19:09;;;;;;;53.53;25.93;;;;;;;;;;5098456;28;20470;-66
2022/01/25 04:24:55;;;;;;;48.03;24.00;;;;;;;;;;5098192;28;20947;-66
2022/01/25 04:27:23;;;;;;;49.10;23.87;;;;;;;;;;5098955;28;20551;-66
2022/01/25 04:29:53;;;;;;;38.97;19.80;;;;;;;;;;5098396;28;20479;-66
2022/01/25 04:32:30;;;;;;;40.90;20.60;;;;;;;;;;5098455;28;21010;-66
2022/01/25 04:35:10;;;;;;;39.47;22.27;;;;;;;;;;5098614;28;20462;-66
2022/01/25 04:49:03;;;;;;;42.80;20.47;;;;;;;;;;5108423;28;20566;-66
2022/01/25 04:54:25;;;;;;;41.80;22.70;;;;;;;;;;5097176;28;20471;-66
2022/01/25 04:57:01;;;;;;;45.47;23.00;;;;;;;;;;5107158;28;20474;-66
2022/01/25 04:59:35;;;;;;;39.40;20.30;;;;;;;;;;5108049;28;20446;-66
2022/01/25 05:02:10;;;;;;;39.50;22.93;;;;;;;;;;5105875;28;20450;-66
2022/01/25 05:04:44;;;;;;;46.77;23.60;;;;;;;;;;5103082;28;21000;-66
2022/01/25 05:07:25;;;;;;;48.60;24.93;;;;;;;;;;5108468;28;20467;-66
2022/01/25 05:09:54;;;;;;;42.67;22.37;;;;;;;;;;5107439;28;20450;-66
2022/01/25 05:12:34;;;;;;;48.37;24.13;;;;;;;;;;5105265;28;20939;-66
2022/01/25 05:15:27;;;;;;;43.73;23.47;;;;;;;;;;5107740;28;20435;-67
2022/01/25 05:18:12;;;;;;;45.47;23.83;;;;;;;;;;5104141;28;20487;-67
2022/01/25 05:23:25;;;;;;;44.30;23.63;;;;;;;;;;5105444;28;20446;-67
2022/01/25 05:25:54;;;;;;;48.00;24.43;;;;;;;;;;5105072;28;20465;-67
2022/01/25 05:28:22;;;;;;;52.47;24.23;;;;;;;;;;5107544;28;20438;-68
2022/01/25 05:30:51;;;;;;;53.83;25.97;;;;;;;;;;5104397;28;20447;-68
2022/01/25 05:33:20;;;;;;;47.70;25.47;;;;;;;;;;5105386;28;20475;-67
2022/01/25 05:35:48;;;;;;;47.20;24.93;;;;;;;;;;5104157;28;20538;-68
2022/01/25 05:38:16;;;;;;;53.23;26.60;;;;;;;;;;5106490;28;20993;-68
2022/01/25 05:40:47;;;;;;;55.77;25.33;;;;;;;;;;5103139;28;20532;-67
2022/01/25 05:46:11;;;;;;;54.13;26.33;;;;;;;;;;5106332;28;20466;-68
2022/01/25 05:48:40;;;;;;;57.73;26.67;;;;;;;;;;5105703;28;20427;-69
2022/01/25 05:51:09;;;;;;;57.17;26.70;;;;;;;;;;5105672;28;20442;-69
2022/01/25 05:53:37;;;;;;;46.23;23.53;;;;;;;;;;5105165;28;20522;-69
2022/01/25 05:56:05;;;;;;;63.00;25.37;;;;;;;;;;5106021;28;20463;-69
2022/01/25 05:58:33;;;;;;;48.57;25.10;;;;;;;;;;5117545;28;20854;-69
2022/01/25 06:01:01;;;;;;;46.97;23.07;;;;;;;;;;5114908;28;20527;-68
2022/01/25 06:03:30;;;;;;;60.17;26.20;;;;;;;;;;5097821;28;20448;-68
2022/01/25 06:05:59;;;;;;;48.93;25.40;;;;;;;;;;5100665;28;20535;-68
2022/01/25 06:08:27;;;;;;;44.10;23.93;;;;;;;;;;5117498;28;20442;-68
2022/01/25 06:10:56;;;;;;;49.70;24.97;;;;;;;;;;5115454;28;20449;-68
2022/01/25 06:13:24;;;;;;;44.50;23.63;;;;;;;;;;5117909;28;20469;-68
2022/01/25 06:15:52;;;;;;;49.73;23.37;;;;;;;;;;5117582;28;21007;-68
2022/01/25 06:18:20;;;;;;;45.13;26.07;;;;;;;;;;5115298;28;20484;-68
2022/01/25 06:20:48;;;;;;;44.93;24.97;;;;;;;;;;5097427;28;20934;-68
2022/01/25 06:23:17;;;;;;;49.17;23.93;;;;;;;;;;5099454;28;20451;-68
2022/01/25 06:25:45;;;;;;;51.13;24.27;;;;;;;;;;5106025;28;21004;-69
2022/01/25 06:28:13;;;;;;;44.40;24.07;;;;;;;;;;5106547;28;20447;-70
2022/01/25 06:30:41;;;;;;;51.63;23.80;;;;;;;;;;5108938;28;20521;-68
2022/01/25 06:33:09;;;;;;;50.47;25.07;;;;;;;;;;5110803;28;20492;-68
2022/01/25 06:35:38;;;;;;;55.37;27.37;;;;;;;;;;5100536;28;20813;-68
2022/01/25 06:38:06;;;;;;;57.27;26.17;;;;;;;;;;5101870;28;20479;-68
2022/01/25 06:40:35;;;;;;;52.80;26.03;;;;;;;;;;5113244;28;20455;-69
2022/01/25 06:43:03;;;;;;;46.93;25.00;;;;;;;;;;5108926;28;20883;-69
2022/01/25 06:45:31;;;;;;;53.17;24.23;;;;;;;;;;5108163;28;20518;-69
2022/01/25 06:47:59;;;;;;;53.67;24.70;;;;;;;;;;5107891;28;20450;-69
2022/01/25 06:50:27;;;;;;;64.10;27.03;;;;;;;;;;5108945;28;20499;-69
2022/01/25 06:52:55;;;;;;;55.33;26.23;;;;;;;;;;5107680;28;20443;-69
2022/01/25 06:55:40;;;;;;;53.73;23.63;;;;;;;;;;5112420;28;20767;-69
2022/01/25 06:58:08;;;;;;;62.30;26.87;;;;;;;;;;5110476;28;20478;-69
2022/01/25 07:00:36;;;;;;;61.27;26.13;;;;;;;;;;5108240;28;20526;-69
2022/01/25 07:03:05;;;;;;;59.40;28.50;;;;;;;;;;5105720;27;20865;-70
2022/01/25 07:05:33;;;;;;;58.87;24.57;;;;;;;;;;5106940;28;20506;-69
2022/01/25 07:08:01;;;;;;;62.60;25.53;;;;;;;;;;5105283;28;20518;-69
2022/01/25 07:10:29;;;;;;;52.47;25.80;;;;;;;;;;5107915;28;20445;-69
2022/01/25 07:12:59;;;;;;;52.67;25.53;;;;;;;;;;5107831;28;20438;-69
2022/01/25 07:15:27;;;;;;;55.67;24.43;;;;;;;;;;5102353;28;20443;-68
2022/01/25 07:17:55;;;;;;;62.80;27.90;;;;;;;;;;5099255;28;20547;-68
2022/01/25 07:20:23;;;;;;;65.10;29.40;;;;;;;;;;5104499;28;20461;-69
2022/01/25 07:22:52;;;;;;;62.70;29.50;;;;;;;;;;5107370;28;20526;-69
2022/01/25 07:25:21;;;;;;;65.53;26.37;;;;;;;;;;5106120;28;20521;-70
2022/01/25 07:27:49;;;;;;;53.80;25.93;;;;;;;;;;5099646;28;20467;-69
2022/01/25 07:30:19;;;;;;;59.60;28.37;;;;;;;;;;5105199;28;20455;-70
2022/01/25 07:32:47;;;;;;;58.50;28.00;;;;;;;;;;5111669;28;20489;-71
2022/01/25 07:35:16;;;;;;;71.77;31.90;;;;;;;;;;5119709;28;20474;-69
2022/01/25 07:37:49;;;;;;;50.20;25.07;;;;;;;;;;5115591;28;20463;-72
2022/01/25 07:40:17;;;;;;;63.27;27.43;;;;;;;;;;5109336;28;20522;-69
2022/01/25 07:42:46;;;;;;;56.67;27.60;;;;;;;;;;5099309;28;20575;-69
2022/01/25 07:45:19;;;;;;;56.30;26.70;;;;;;;;;;5099130;28;20443;-69
2022/01/25 07:47:49;;;;;;;61.30;27.07;;;;;;;;;;5102007;28;20489;-69
2022/01/25 07:50:18;;;;;;;54.60;28.47;;;;;;;;;;5119854;28;20446;-69
2022/01/25 07:52:46;;;;;;;55.47;26.97;;;;;;;;;;5118438;28;20479;-69
2022/01/25 07:55:14;;;;;;;60.60;28.57;;;;;;;;;;5119458;28;20820;-69
2022/01/25 07:57:42;;;;;;;70.47;29.57;;;;;;;;;;5101167;28;20815;-68
2022/01/25 08:00:10;;;;;;;52.93;25.90;;;;;;;;;;5098830;28;20850;-68
2022/01/25 08:02:41;;;;;;;63.70;30.30;;;;;;;;;;5098703;28;20452;-68
2022/01/25 08:05:25;;;;;;;65.13;30.17;;;;;;;;;;5098185;28;20493;-69
2022/01/25 08:08:10;;;;;;;64.00;29.40;;;;;;;;;;5099051;28;20875;-68
2022/01/25 08:10:50;;;;;;;65.93;30.30;;;;;;;;;;5098787;28;20450;-68
2022/01/25 08:13:32;;;;;;;65.27;28.70;;;;;;;;;;5069185;28;20459;-68
2022/01/25 08:16:27;;;;;;;68.10;28.97;;;;;;;;;;4996991;28;20979;-68
2022/01/25 08:19:02;;;;;;;65.73;30.80;;;;;;;;;;4996235;28;20476;-68
2022/01/25 08:21:37;;;;;;;69.37;26.63;;;;;;;;;;4996704;28;20440;-68
2022/01/25 08:24:37;;;;;;;64.73;29.53;;;;;;;;;;4996479;28;20952;-69
2022/01/25 08:27:22;;;;;;;67.67;30.33;;;;;;;;;;4994507;28;20519;-68
2022/01/25 08:30:06;;;;;;;67.67;27.80;;;;;;;;;;4995332;28;20448;-68
2022/01/25 08:32:48;;;;;;;69.93;29.13;;;;;;;;;;4979276;28;20456;-68
2022/01/25 08:35:42;;;;;;;62.20;28.30;;;;;;;;;;4900197;29;20837;-68
2022/01/25 08:38:27;;;;;;;61.03;28.53;;;;;;;;;;4899778;29;20437;-68
2022/01/25 08:41:17;;;;;;;70.83;28.57;;;;;;;;;;4952665;28;20460;-68
2022/01/25 08:43:52;;;;;;;59.00;28.40;;;;;;;;;;4975911;28;20445;-68
2022/01/25 08:46:28;;;;;;;62.50;28.40;;;;;;;;;;4965987;28;21056;-68
2022/01/25 08:49:08;;;;;;;58.57;27.50;;;;;;;;;;4962719;28;20531;-69
2022/01/25 08:51:57;;;;;;;61.43;28.80;;;;;;;;;;5016331;28;20450;-69
2022/01/25 08:54:39;;;;;;;69.97;28.43;;;;;;;;;;4976494;28;20984;-68
2022/01/25 08:57:26;;;;;;;61.87;28.97;;;;;;;;;;4967882;28;20484;-69
2022/01/25 09:00:13;;;;;;;73.03;29.33;;;;;;;;;;5032549;28;20893;-68
2022/01/25 09:02:41;;;;;;;61.13;28.17;;;;;;;;;;5075270;28;20512;-69
2022/01/25 09:05:10;;;;;;;64.77;29.10;;;;;;;;;;5074860;28;20452;-68
2022/01/25 09:07:39;;;;;;;64.60;29.23;;;;;;;;;;5062166;28;20463;-68
2022/01/25 09:10:09;;;;;;;68.40;31.37;;;;;;;;;;5074942;28;20440;-68
2022/01/25 09:12:37;;;;;;;60.97;28.67;;;;;;;;;;5062350;28;20437;-69
2022/01/25 09:15:05;;;;;;;66.57;30.30;;;;;;;;;;5075194;28;20451;-68
2022/01/25 09:17:33;;;;;;;68.50;30.07;;;;;;;;;;5074845;28;20468;-68
2022/01/25 09:20:02;;;;;;;67.90;31.17;;;;;;;;;;5071898;28;21014;-69
2022/01/25 09:22:33;;;;;;;65.33;31.50;;;;;;;;;;5074688;28;20478;-69
2022/01/25 09:25:22;;;;;;;66.90;29.37;;;;;;;;;;5083835;28;20954;-69
2022/01/25 09:27:50;;;;;;;66.80;29.57;;;;;;;;;;5115659;28;20469;-68
2022/01/25 09:30:18;;;;;;;61.43;30.13;;;;;;;;;;5117690;28;20957;-69
2022/01/25 09:32:47;;;;;;;74.57;32.43;;;;;;;;;;5117685;28;20451;-68
2022/01/25 09:35:15;;;;;;;77.67;34.07;;;;;;;;;;5113931;28;20912;-68
2022/01/25 09:37:43;;;;;;;65.77;33.40;;;;;;;;;;5097112;28;20473;-68
2022/01/25 09:40:11;;;;;;;81.50;32.47;;;;;;;;;;5098309;28;20486;-68
2022/01/25 09:42:41;;;;;;;65.67;31.57;;;;;;;;;;5097616;28;20457;-69
2022/01/25 09:45:09;;;;;;;74.30;33.90;;;;;;;;;;5097041;28;20466;-68
2022/01/25 09:47:38;;;;;;;72.70;35.73;;;;;;;;;;5096852;28;20467;-68
2022/01/25 09:50:06;;;;;;;73.77;31.97;;;;;;;;;;5096994;28;20938;-67
2022/01/25 09:52:34;;;;;;;82.73;33.87;;;;;;;;;;5101863;28;20446;-67
2022/01/25 09:55:02;;;;;;;80.33;33.90;;;;;;;;;;5103914;28;20447;-68
2022/01/25 09:57:30;;;;;;;66.50;32.77;;;;;;;;;;5105982;28;20469;-66
2022/01/25 09:59:59;;;;;;;79.67;34.03;;;;;;;;;;5109155;28;20471;-65
2022/01/25 10:02:37;;;;;;;71.53;32.03;;;;;;;;;;5111101;28;20440;-65
2022/01/25 10:05:15;;;;;;;79.53;36.13;;;;;;;;;;5109118;28;21122;-67
2022/01/25 10:07:43;;;;;;;75.27;35.13;;;;;;;;;;5100260;28;20463;-65
2022/01/25 10:10:11;;;;;;;82.20;34.93;;;;;;;;;;5100949;28;20443;-65
2022/01/25 10:12:43;;;;;;;74.43;35.63;;;;;;;;;;5100363;28;20878;-66
2022/01/25 10:15:14;;;;;;;88.30;36.00;;;;;;;;;;5100899;28;20453;-65
2022/01/25 10:18:01;;;;;;;72.63;33.37;;;;;;;;;;5100428;28;20458;-65
2022/01/25 10:20:30;;;;;;;77.80;34.80;;;;;;;;;;5100543;28;20490;-67
2022/01/25 10:23:01;;;;;;;77.37;34.10;;;;;;;;;;5101838;28;20452;-67
2022/01/25 10:25:34;;;;;;;79.97;34.77;;;;;;;;;;5100703;28;20443;-66
2022/01/25 10:28:03;;;;;;;79.40;33.23;;;;;;;;;;5100937;28;20447;-67
2022/01/25 10:30:38;;;;;;;76.90;35.47;;;;;;;;;;5100878;28;20435;-66
2022/01/25 10:33:20;;;;;;;89.60;37.67;;;;;;;;;;5100484;28;20449;-65
2022/01/25 10:35:48;;;;;;;78.47;35.50;;;;;;;;;;5100352;28;20833;-65
2022/01/25 10:38:20;;;;;;;84.70;34.73;;;;;;;;;;5101922;28;20521;-65
2022/01/25 10:40:54;;;;;;;87.70;39.27;;;;;;;;;;5100569;28;20622;-65
2022/01/25 10:43:22;;;;;;;79.70;36.37;;;;;;;;;;5100154;28;20450;-65
2022/01/25 10:46:15;;;;;;;74.87;34.77;;;;;;;;;;5100640;28;20530;-65
2022/01/25 10:48:45;;;;;;;92.00;35.50;;;;;;;;;;5102629;28;20443;-65
2022/01/25 10:51:15;;;;;;;71.90;33.50;;;;;;;;;;5106797;28;20458;-66
2022/01/25 10:53:43;;;;;;;81.63;36.87;;;;;;;;;;5107739;28;20444;-65
2022/01/25 10:56:11;;;;;;;82.33;35.07;;;;;;;;;;5118118;28;20501;-66
2022/01/25 10:58:40;;;;;;;84.83;36.03;;;;;;;;;;5101697;28;20443;-67
2022/01/25 11:01:10;;;;;;;64.93;31.50;;;;;;;;;;5099947;28;20497;-66
2022/01/25 11:03:42;;;;;;;70.67;34.60;;;;;;;;;;5099529;28;20443;-66
2022/01/25 11:06:12;;;;;;;76.07;33.10;;;;;;;;;;5100021;28;20463;-70
2022/01/25 11:08:40;;;;;;;79.00;34.07;;;;;;;;;;5113992;28;20445;-67
2022/01/25 11:11:11;;;;;;;76.20;35.17;;;;;;;;;;5120488;27;20443;-69
2022/01/25 11:13:42;;;;;;;80.37;35.83;;;;;;;;;;5104861;28;20450;-69
2022/01/25 11:16:12;;;;;;;78.37;36.80;;;;;;;;;;5100090;28;20467;-70
2022/01/25 11:18:42;;;;;;;76.23;35.23;;;;;;;;;;5111968;28;20448;-70
2022/01/25 11:21:11;;;;;;;73.60;33.90;;;;;;;;;;5100242;28;20483;-68
2022/01/25 11:23:40;;;;;;;72.90;33.87;;;;;;;;;;5099406;28;20439;-69
2022/01/25 11:26:09;;;;;;;77.90;32.00;;;;;;;;;;5099682;28;20463;-69
2022/01/25 11:28:38;;;;;;;81.30;36.20;;;;;;;;;;5115366;28;20445;-70
2022/01/25 11:31:08;;;;;;;67.17;32.03;;;;;;;;;;5120277;28;20439;-74
2022/01/25 11:33:39;;;;;;;61.70;30.33;;;;;;;;;;5119073;28;20878;-74
2022/01/25 11:36:10;;;;;;;61.83;30.27;;;;;;;;;;5119676;28;21013;-75
2022/01/25 11:38:41;;;;;;;51.00;28.87;;;;;;;;;;5103288;28;20454;-75
2022/01/25 11:41:10;;;;;;;57.07;28.43;;;;;;;;;;5105560;28;20480;-73
2022/01/25 11:43:38;;;;;;;56.97;30.27;;;;;;;;;;5106431;28;20442;-73
2022/01/25 11:46:07;;;;;;;57.40;30.40;;;;;;;;;;5119367;28;22052;-73
2022/01/25 11:48:37;;;;;;;66.10;29.13;;;;;;;;;;5109732;27;20448;-72
2022/01/25 11:51:12;;;;;;;56.70;29.03;;;;;;;;;;5099265;28;20450;-72
2022/01/25 11:53:43;;;;;;;62.97;30.07;;;;;;;;;;5098901;28;20450;-72
2022/01/25 11:56:12;;;;;;;61.07;30.23;;;;;;;;;;5109142;28;20999;-72
2022/01/25 11:58:40;;;;;;;61.23;29.27;;;;;;;;;;5117006;28;20582;-73
2022/01/25 12:01:17;;;;;;;56.40;30.00;;;;;;;;;;5119082;28;20486;-72
2022/01/25 12:03:45;;;;;;;58.47;32.53;;;;;;;;;;5104426;28;20942;-73
2022/01/25 12:06:19;;;;;;;59.40;31.33;;;;;;;;;;5098955;28;20460;-73
2022/01/25 12:09:08;;;;;;;59.13;30.43;;;;;;;;;;5111873;28;20455;-72
2022/01/25 12:11:42;;;;;;;56.93;29.27;;;;;;;;;;5119096;28;20435;-72
2022/01/25 12:14:10;;;;;;;60.33;30.33;;;;;;;;;;5101372;27;20448;-72
2022/01/25 12:16:43;;;;;;;57.53;27.90;;;;;;;;;;5098801;28;20474;-72
2022/01/25 12:19:12;;;;;;;66.77;31.27;;;;;;;;;;5105786;28;20455;-72
2022/01/25 12:22:11;;;;;;;56.73;28.30;;;;;;;;;;5098153;28;20489;-73
2022/01/25 12:24:52;;;;;;;53.40;25.70;;;;;;;;;;5098179;28;20442;-73
2022/01/25 12:27:24;;;;;;;56.13;27.30;;;;;;;;;;5097913;28;20467;-73
2022/01/25 12:29:59;;;;;;;49.97;26.20;;;;;;;;;;5098381;28;20449;-73
2022/01/25 12:32:29;;;;;;;48.93;27.07;;;;;;;;;;5098092;28;20507;-73
2022/01/25 12:35:11;;;;;;;66.90;34.20;;;;;;;;;;5098389;28;20443;-72
2022/01/25 12:37:57;;;;;;;56.80;27.93;;;;;;;;;;5097578;28;20470;-73
2022/01/25 12:40:32;;;;;;;57.47;27.23;;;;;;;;;;5099352;28;20530;-73
2022/01/25 12:43:01;;;;;;;58.00;29.50;;;;;;;;;;5111006;28;20443;-73
2022/01/25 12:45:30;;;;;;;53.83;28.77;;;;;;;;;;5097613;28;20466;-73
2022/01/25 12:47:59;;;;;;;54.73;27.23;;;;;;;;;;5098098;28;20444;-73
2022/01/25 12:50:28;;;;;;;49.73;27.40;;;;;;;;;;5098621;28;20811;-73
2022/01/25 12:52:56;;;;;;;45.97;26.23;;;;;;;;;;5118277;28;20449;-73
2022/01/25 12:55:25;;;;;;;53.07;29.07;;;;;;;;;;5116004;28;20465;-73
2022/01/25 12:57:55;;;;;;;53.77;29.03;;;;;;;;;;5110356;28;20465;-73
2022/01/25 13:00:28;;;;;;;51.33;26.47;;;;;;;;;;5117759;28;20439;-73
2022/01/25 13:03:10;;;;;;;42.40;24.80;;;;;;;;;;5097802;28;20479;-74
2022/01/25 13:05:42;;;;;;;45.63;25.03;;;;;;;;;;5097403;28;20440;-73
2022/01/25 13:08:20;;;;;;;49.10;25.90;;;;;;;;;;5097809;28;20443;-73
2022/01/25 13:10:49;;;;;;;51.93;26.77;;;;;;;;;;5097461;28;20524;-73
2022/01/25 13:13:28;;;;;;;44.67;24.50;;;;;;;;;;5097926;28;20451;-73
2022/01/25 13:15:59;;;;;;;52.43;27.60;;;;;;;;;;5097763;28;20463;-74
2022/01/25 13:18:30;;;;;;;50.60;25.20;;;;;;;;;;5097685;28;20451;-73
2022/01/25 13:21:00;;;;;;;42.60;24.53;;;;;;;;;;5097182;28;20447;-73
2022/01/25 13:23:28;;;;;;;49.30;25.07;;;;;;;;;;5097533;28;20443;-73
2022/01/25 13:26:07;;;;;;;46.13;26.33;;;;;;;;;;5097153;28;20474;-73
2022/01/25 13:28:52;;;;;;;48.30;24.87;;;;;;;;;;5097819;28;20205;-73
2022/01/25 13:31:22;;;;;;;44.57;24.27;;;;;;;;;;5097058;28;20448;-73
2022/01/25 13:33:53;;;;;;;45.97;26.20;;;;;;;;;;5097486;28;20462;-73
2022/01/25 13:36:22;;;;;;;44.10;24.30;;;;;;;;;;5096994;28;20487;-73
2022/01/25 13:38:50;;;;;;;47.40;23.80;;;;;;;;;;5097098;28;20284;-73
2022/01/25 13:41:26;;;;;;;39.60;22.70;;;;;;;;;;5096846;28;20227;-74
2022/01/25 13:46:44;;;;;;;44.03;22.73;;;;;;;;;;5097361;28;20805;-73
2022/01/25 13:49:13;;;;;;;50.13;26.23;;;;;;;;;;5097094;28;20214;-73
2022/01/25 13:51:43;;;;;;;48.47;26.43;;;;;;;;;;5097483;28;20436;-73
2022/01/25 13:54:13;;;;;;;47.50;24.23;;;;;;;;;;5096994;28;20205;-73
2022/01/25 13:56:41;;;;;;;45.67;23.77;;;;;;;;;;5111307;28;20217;-74
2022/01/25 13:59:11;;;;;;;45.33;24.50;;;;;;;;;;5107187;28;20442;-73
2022/01/25 14:01:40;;;;;;;46.70;24.00;;;;;;;;;;5104293;28;20474;-73
2022/01/25 14:04:09;;;;;;;46.83;24.77;;;;;;;;;;5106519;28;20500;-71
2022/01/25 14:06:40;;;;;;;40.80;23.50;;;;;;;;;;5104640;28;20455;-72
2022/01/25 14:09:11;;;;;;;44.37;23.97;;;;;;;;;;5105795;28;20476;-71
2022/01/25 14:21:28;;;;;;;43.77;23.20;;;;;;;;;;5095735;28;20439;-70
2022/01/25 14:25:45;;;;;;;43.47;23.87;;;;;;;;;;5086067;28;20202;-73
2022/01/25 14:28:15;;;;;;;44.97;22.33;;;;;;;;;;5105002;28;20567;-73
2022/01/25 14:30:45;;;;;;;34.97;21.83;;;;;;;;;;5117104;28;20567;-73
2022/01/25 14:33:14;;;;;;;39.87;21.33;;;;;;;;;;5116871;28;20208;-73
2022/01/25 14:35:44;;;;;;;42.27;23.13;;;;;;;;;;5117142;28;20294;-73
2022/01/25 14:38:16;;;;;;;38.93;21.33;;;;;;;;;;5110187;28;20208;-73
2022/01/25 14:40:54;;;;;;;36.67;21.07;;;;;;;;;;5101221;28;20215;-69
2022/01/25 14:43:25;;;;;;;36.17;20.13;;;;;;;;;;5102865;28;20216;-68
2022/01/25 14:46:00;;;;;;;38.63;22.67;;;;;;;;;;5105032;28;20230;-70
2022/01/25 14:48:34;;;;;;;41.13;22.53;;;;;;;;;;5106954;28;20284;-69
2022/01/25 14:51:03;;;;;;;38.23;21.47;;;;;;;;;;5100443;28;20212;-69
2022/01/25 14:53:31;;;;;;;40.13;21.73;;;;;;;;;;5110563;28;20201;-69
2022/01/25 14:56:02;;;;;;;41.63;21.70;;;;;;;;;;5119955;28;20684;-70
2022/01/25 15:01:17;;;;;;;37.93;20.63;;;;;;;;;;5107248;28;20617;-69
2022/01/25 15:03:46;;;;;;;37.00;22.73;;;;;;;;;;5109173;28;20244;-69
2022/01/25 15:06:15;;;;;;;33.67;20.33;;;;;;;;;;5109801;28;20229;-70
2022/01/25 15:08:53;;;;;;;43.07;20.90;;;;;;;;;;5110692;28;20204;-70
2022/01/25 15:11:22;;;;;;;40.87;23.70;;;;;;;;;;5107488;27;20197;-70
2022/01/25 15:13:56;;;;;;;36.50;20.50;;;;;;;;;;5104695;28;20566;-70
2022/01/25 15:16:26;;;;;;;39.97;22.27;;;;;;;;;;5099511;28;20231;-70
2022/01/25 15:18:54;;;;;;;42.37;22.83;;;;;;;;;;5106791;28;20216;-70
2022/01/25 15:21:22;;;;;;;38.37;22.73;;;;;;;;;;5120297;28;20205;-70
2022/01/25 15:23:50;;;;;;;38.07;19.70;;;;;;;;;;5111037;28;20231;-69
2022/01/25 15:26:19;;;;;;;40.60;22.50;;;;;;;;;;5113402;28;20227;-70
2022/01/25 15:28:51;;;;;;;31.50;21.13;;;;;;;;;;5099950;28;20207;-69
2022/01/25 15:31:20;;;;;;;38.37;20.80;;;;;;;;;;5099175;28;20205;-70
2022/01/25 15:33:50;;;;;;;41.07;22.53;;;;;;;;;;5106610;28;20263;-69
2022/01/25 15:36:19;;;;;;;38.40;21.50;;;;;;;;;;5110084;28;20481;-69
2022/01/25 15:38:48;;;;;;;35.77;20.63;;;;;;;;;;5107483;28;20588;-70
2022/01/25 15:41:16;;;;;;;41.50;22.10;;;;;;;;;;5103905;28;20212;-69
2022/01/25 15:43:50;;;;;;;40.57;24.33;;;;;;;;;;5108215;28;20221;-70
2022/01/25 15:46:26;;;;;;;44.23;26.30;;;;;;;;;;5106906;28;20278;-70
2022/01/25 15:48:56;;;;;;;50.37;28.40;;;;;;;;;;5107463;28;20473;-69
2022/01/25 15:51:24;;;;;;;50.13;28.23;;;;;;;;;;5106840;28;20444;-66
2022/01/25 15:53:53;;;;;;;54.07;30.13;;;;;;;;;;5098506;28;20443;-68
2022/01/25 15:56:21;;;;;;;52.40;29.77;;;;;;;;;;5107436;28;20223;-67
2022/01/25 15:58:49;;;;;;;52.30;28.17;;;;;;;;;;5119265;28;20438;-69
2022/01/25 16:01:32;;;;;;;53.87;28.60;;;;;;;;;;5106653;28;20212;-66
2022/01/25 16:04:02;;;;;;;53.93;31.13;;;;;;;;;;5111791;28;20311;-66
2022/01/25 16:06:30;;;;;;;52.67;30.17;;;;;;;;;;5115400;28;20213;-66
2022/01/25 16:08:58;;;;;;;58.90;29.73;;;;;;;;;;5112721;28;20215;-66
2022/01/25 16:11:43;;;;;;;58.90;29.43;;;;;;;;;;5101646;28;20207;-65